University Park Airport State College US
ICAO: KUNV
IATA: SCE
Category: Medium
Scheduled Services: Yes

Elevation: 1239 ft
TransAlt. 18000 ft.

Airport Communications:
AWOS 3:127.65
CLNC DEL:118.55
NEW YORK CNTR:134.8
ALTOONA RDO:122.5
CTAF/UNICOM:122.8

KUNV Zoom In..

If you have problems with the map follow the link
https://www.worldairports.se/pages/airport.php?
ICAO=KUNV

Runways:

(A) RW 06 length 6701 ft width 150 ft
---- / hdg 64

(B) RW 24 length 6701 ft width 150 ft
ILS 111.70 / hdg 244

Location; KUNV
Day. 18 / Time. 12.25 Zulu
* Altimeter: 30.38
* Temperature: -06° c. -21.2°f.
* Wind from: 160° Speed 04 kn.
Dewpoint: -13° c.
Visibility: 2 Statute Miles.
Clouds: Scattered 1800 ft.
Clouds: Broken 2900 ft.
Clouds: Overcast 7500 ft.
Conditions: Snow.

KUNV 181225Z 16004KT 2SM SN SCT018 BKN029 OVC075 M06/M13 A3038


Wind From 160°
Speed 04 kn.

 
 
jpsmedia worldairports.se 2020   terms of use